Time,TemperatureF,DewpointF,PressureIn,WindDirection,WindDirectionDegrees,WindSpeedMPH,WindSpeedGustMPH,Humidity,HourlyPrecipIn,Conditions,Clouds,dailyrainin,SoftwareType,DateUTC
2013-05-31 00:01:00,64.2,61.8,30.03,SSW,197,4.5,4.9,92,0.00,,---,0.00,VWS V14.01,2013-05-31 04:01:00,
2013-05-31 00:06:00,64.0,62.3,30.03,SSW,198,3.1,5.4,94,0.00,,---,0.00,VWS V14.01,2013-05-31 04:06:00,
2013-05-31 00:11:00,64.0,62.9,30.03,SSW,198,3.1,4.9,96,0.00,,---,0.00,VWS V14.01,2013-05-31 04:11:00,
2013-05-31 00:16:00,64.2,63.9,30.03,SSW,198,4.0,4.9,99,0.00,,---,0.00,VWS V14.01,2013-05-31 04:16:00,
2013-05-31 00:26:00,64.4,64.4,30.03,SSW,198,5.4,5.4,100,0.00,,---,0.00,VWS V14.01,2013-05-31 04:26:00,
2013-05-31 00:36:00,64.4,64.4,30.03,SSW,205,5.8,6.7,100,0.00,,---,0.00,VWS V14.01,2013-05-31 04:36:00,
2013-05-31 00:41:00,64.4,64.4,30.03,SSW,204,4.9,6.3,100,0.00,,---,0.00,VWS V14.01,2013-05-31 04:41:00,
2013-05-31 00:51:00,64.4,64.4,30.03,SSW,204,4.9,6.7,100,0.00,,---,0.00,VWS V14.01,2013-05-31 04:51:00,
2013-05-31 00:56:00,64.2,64.2,30.03,SSW,204,4.0,4.9,100,0.00,,---,0.00,VWS V14.01,2013-05-31 04:56:00,
2013-05-31 01:01:00,64.0,64.0,30.03,SSW,204,4.5,5.4,100,0.00,,---,0.00,VWS V14.01,2013-05-31 05:01:00,
2013-05-31 01:06:00,63.7,63.7,30.03,SSW,204,4.0,4.9,100,0.00,,---,0.00,VWS V14.01,2013-05-31 05:06:00,
2013-05-31 01:16:00,63.3,63.3,30.03,SSW,204,4.0,5.4,100,0.00,,---,0.00,VWS V14.01,2013-05-31 05:16:00,
2013-05-31 01:21:00,63.3,63.3,30.03,SSW,204,4.5,6.3,100,0.00,,---,0.00,VWS V14.01,2013-05-31 05:21:00,
2013-05-31 01:26:00,63.1,63.1,30.03,SSW,204,4.5,5.4,100,0.00,,---,0.00,VWS V14.01,2013-05-31 05:26:00,
2013-05-31 01:31:00,63.1,63.1,30.03,SSW,204,4.0,5.8,100,0.00,,---,0.00,VWS V14.01,2013-05-31 05:31:00,
2013-05-31 01:36:00,63.0,63.0,30.03,SSW,204,4.0,5.4,100,0.00,,---,0.00,VWS V14.01,2013-05-31 05:36:00,
2013-05-31 01:41:00,62.8,62.8,30.03,SSW,204,3.6,5.4,100,0.00,,---,0.00,VWS V14.01,2013-05-31 05:41:00,
2013-05-31 01:46:00,62.8,62.8,30.03,SSW,204,4.5,5.8,100,0.00,,---,0.00,VWS V14.01,2013-05-31 05:46:00,
2013-05-31 01:51:00,62.6,62.6,30.03,SSW,204,5.4,6.3,100,0.00,,---,0.00,VWS V14.01,2013-05-31 05:51:00,
2013-05-31 01:56:00,62.8,62.8,30.03,SSW,204,4.0,5.8,100,0.00,,---,0.00,VWS V14.01,2013-05-31 05:56:00,
2013-05-31 02:06:00,62.6,62.6,30.03,SSW,204,5.4,5.8,100,0.00,,---,0.00,VWS V14.01,2013-05-31 06:06:00,
2013-05-31 02:11:00,62.4,62.4,30.03,SSW,204,5.4,5.8,100,0.00,,---,0.00,VWS V14.01,2013-05-31 06:11:00,
2013-05-31 02:21:00,62.1,62.1,30.03,SSW,204,4.9,5.4,100,0.00,,---,0.00,VWS V14.01,2013-05-31 06:21:00,
2013-05-31 02:36:00,62.1,62.1,30.03,SSW,202,4.9,6.3,100,0.00,,---,0.00,VWS V14.01,2013-05-31 06:36:00,
2013-05-31 02:41:00,61.9,61.9,30.03,SSW,204,4.0,6.3,100,0.00,,---,0.00,VWS V14.01,2013-05-31 06:41:00,
2013-05-31 02:51:00,61.7,61.7,30.03,SSW,204,5.4,5.4,100,0.00,,---,0.00,VWS V14.01,2013-05-31 06:51:00,
2013-05-31 02:56:00,61.5,61.5,30.03,SSW,204,5.4,6.3,100,0.00,,---,0.00,VWS V14.01,2013-05-31 06:56:00,
2013-05-31 03:06:00,61.5,61.5,30.03,SSW,204,4.9,5.8,100,0.00,,---,0.00,VWS V14.01,2013-05-31 07:06:00,
2013-05-31 03:16:00,61.5,61.5,30.03,SSW,204,5.4,5.4,100,0.00,,---,0.00,VWS V14.01,2013-05-31 07:16:00,
2013-05-31 03:21:00,61.3,61.3,30.03,SSW,204,5.4,5.8,100,0.00,,---,0.00,VWS V14.01,2013-05-31 07:21:00,
2013-05-31 03:31:00,61.5,61.5,30.03,SSW,204,4.9,5.8,100,0.00,,---,0.00,VWS V14.01,2013-05-31 07:31:00,
2013-05-31 03:41:00,61.5,61.5,30.03,SSW,198,5.8,7.6,100,0.00,,---,0.00,VWS V14.01,2013-05-31 07:41:00,
2013-05-31 03:51:00,61.3,61.3,30.03,SSW,198,6.3,6.7,100,0.00,,---,0.00,VWS V14.01,2013-05-31 07:51:00,
2013-05-31 03:56:00,61.2,61.2,30.03,SSW,198,4.5,6.3,100,0.00,,---,0.00,VWS V14.01,2013-05-31 07:56:00,
2013-05-31 04:06:00,61.0,61.0,30.03,SSW,200,7.2,8.1,100,0.00,,---,0.00,VWS V14.01,2013-05-31 08:06:00,
2013-05-31 04:11:00,61.0,61.0,30.03,SSW,200,6.7,7.6,100,0.00,,---,0.00,VWS V14.01,2013-05-31 08:11:00,
2013-05-31 04:16:00,61.2,61.2,30.03,SSW,200,6.7,7.2,100,0.00,,---,0.00,VWS V14.01,2013-05-31 08:16:00,
2013-05-31 04:26:00,61.2,61.2,30.03,SSW,201,4.9,6.7,100,0.00,,---,0.00,VWS V14.01,2013-05-31 08:26:00,
2013-05-31 04:36:00,61.3,61.3,30.03,SSW,201,4.0,5.8,100,0.00,,---,0.00,VWS V14.01,2013-05-31 08:36:00,
2013-05-31 04:41:00,61.3,61.3,30.03,SSW,202,5.4,5.8,100,0.00,,---,0.00,VWS V14.01,2013-05-31 08:41:00,
2013-05-31 04:51:00,61.3,61.3,30.03,SSW,201,6.3,7.2,100,0.00,,---,0.00,VWS V14.01,2013-05-31 08:51:00,
2013-05-31 04:56:00,61.2,61.2,30.03,SSW,198,7.2,7.6,100,0.00,,---,0.00,VWS V14.01,2013-05-31 08:56:00,
2013-05-31 05:01:00,61.2,61.2,30.03,SSW,202,5.8,7.6,100,0.00,,---,0.00,VWS V14.01,2013-05-31 09:01:00,
2013-05-31 05:11:00,61.0,61.0,30.03,SSW,202,5.8,6.7,100,0.00,,---,0.00,VWS V14.01,2013-05-31 09:11:00,
2013-05-31 05:16:00,61.2,61.2,30.03,SSW,202,6.3,7.2,100,0.00,,---,0.00,VWS V14.01,2013-05-31 09:16:00,
2013-05-31 05:21:00,61.2,61.2,30.03,SSW,202,7.2,7.6,100,0.00,,---,0.00,VWS V14.01,2013-05-31 09:21:00,
2013-05-31 05:26:00,61.3,61.3,30.03,SSW,202,6.7,8.5,100,0.00,,---,0.00,VWS V14.01,2013-05-31 09:26:00,
2013-05-31 05:36:00,61.5,61.5,30.03,SSW,202,5.4,6.7,100,0.00,,---,0.00,VWS V14.01,2013-05-31 09:36:00,
2013-05-31 05:46:00,61.7,61.7,30.03,SSW,202,4.9,7.2,100,0.00,,---,0.00,VWS V14.01,2013-05-31 09:46:00,
2013-05-31 05:56:00,61.7,61.7,30.03,SSW,201,6.3,7.6,100,0.00,,---,0.00,VWS V14.01,2013-05-31 09:56:00,
2013-05-31 06:06:00,62.2,62.2,30.06,SSW,204,6.3,7.6,100,0.00,,---,0.00,VWS V14.01,2013-05-31 10:06:00,
2013-05-31 06:11:00,62.4,62.4,30.06,SW,219,4.5,7.6,100,0.00,,---,0.00,VWS V14.01,2013-05-31 10:11:00,
2013-05-31 06:16:00,62.2,62.2,30.06,SW,225,6.7,8.1,100,0.00,,---,0.00,VWS V14.01,2013-05-31 10:16:00,
2013-05-31 06:21:00,62.6,62.6,30.06,SW,230,6.3,9.4,100,0.00,,---,0.00,VWS V14.01,2013-05-31 10:21:00,
2013-05-31 06:31:00,67.1,62.8,30.06,SW,219,7.2,8.5,86,0.00,,---,0.00,VWS V14.01,2013-05-31 10:31:00,
2013-05-31 06:41:00,65.3,63.2,30.06,SW,219,4.9,8.1,93,0.00,,---,0.00,VWS V14.01,2013-05-31 10:41:00,
2013-05-31 06:51:00,64.9,64.9,30.06,South,181,4.0,7.6,100,0.00,,---,0.00,VWS V14.01,2013-05-31 10:51:00,
2013-05-31 06:56:00,64.9,64.9,30.06,South,185,3.6,4.9,100,0.00,,---,0.00,VWS V14.01,2013-05-31 10:56:00,
2013-05-31 07:01:00,64.9,64.9,30.06,South,178,3.1,4.9,100,0.00,,---,0.00,VWS V14.01,2013-05-31 11:01:00,
2013-05-31 07:06:00,65.3,65.3,30.06,South,178,3.1,4.5,100,0.00,,---,0.00,VWS V14.01,2013-05-31 11:06:00,
2013-05-31 07:11:00,66.0,66.0,30.06,South,178,1.8,3.1,100,0.00,,---,0.00,VWS V14.01,2013-05-31 11:11:00,
2013-05-31 07:16:00,67.1,67.1,30.06,South,178,2.7,3.6,100,0.00,,---,0.00,VWS V14.01,2013-05-31 11:16:00,
2013-05-31 07:21:00,68.2,66.1,30.06,South,180,1.8,3.6,93,0.00,,---,0.00,VWS V14.01,2013-05-31 11:21:00,
2013-05-31 07:26:00,68.9,65.2,30.06,South,180,3.6,4.5,88,0.00,,---,0.00,VWS V14.01,2013-05-31 11:26:00,
2013-05-31 07:36:00,69.8,64.8,30.06,South,180,0.0,3.6,84,0.00,,---,0.00,VWS V14.01,2013-05-31 11:36:00,
2013-05-31 07:46:00,70.5,65.8,30.06,South,180,0.0,3.6,85,0.00,,---,0.00,VWS V14.01,2013-05-31 11:46:00,
2013-05-31 07:51:00,71.4,65.3,30.06,South,177,3.1,4.5,81,0.00,,---,0.00,VWS V14.01,2013-05-31 11:51:00,
2013-05-31 08:01:00,73.2,64.8,30.06,SSE,166,4.0,5.4,75,0.00,,---,0.00,VWS V14.01,2013-05-31 12:01:00,
2013-05-31 08:06:00,73.8,65.3,30.06,SSE,166,3.6,5.4,75,0.00,,---,0.00,VWS V14.01,2013-05-31 12:06:00,
2013-05-31 08:11:00,74.3,66.2,30.06,South,180,4.0,6.7,76,0.00,,---,0.00,VWS V14.01,2013-05-31 12:11:00,
2013-05-31 08:21:00,76.1,66.8,30.03,SSW,192,6.3,7.2,73,0.00,,---,0.00,VWS V14.01,2013-05-31 12:21:00,
2013-05-31 08:31:00,78.8,66.9,30.03,SSW,200,6.7,8.5,67,0.00,,---,0.00,VWS V14.01,2013-05-31 12:31:00,
2013-05-31 08:41:00,80.2,65.1,30.03,SW,229,8.1,9.4,60,0.00,,---,0.00,VWS V14.01,2013-05-31 12:41:00,
2013-05-31 08:46:00,80.4,65.3,30.03,SSW,209,6.3,9.4,60,0.00,,---,0.00,VWS V14.01,2013-05-31 12:46:00,
2013-05-31 08:51:00,80.8,66.1,30.03,SSW,207,7.2,8.5,61,0.00,,---,0.00,VWS V14.01,2013-05-31 12:51:00,
2013-05-31 08:56:00,81.5,66.3,30.03,South,188,5.8,8.1,60,0.00,,---,0.00,VWS V14.01,2013-05-31 12:56:00,
2013-05-31 09:06:00,82.2,67.0,30.03,SSW,194,4.5,8.1,60,0.00,,---,0.00,VWS V14.01,2013-05-31 13:06:00,
2013-05-31 09:16:00,83.1,67.3,30.03,South,190,5.8,7.6,59,0.00,,---,0.00,VWS V14.01,2013-05-31 13:16:00,
2013-05-31 09:26:00,83.8,68.0,30.03,SSW,194,4.5,7.2,59,0.00,,---,0.00,VWS V14.01,2013-05-31 13:26:00,
2013-05-31 09:31:00,83.8,68.0,30.03,SSW,198,4.9,7.6,59,0.00,,---,0.00,VWS V14.01,2013-05-31 13:31:00,
2013-05-31 09:41:00,83.8,68.0,30.03,SSW,204,4.9,8.5,59,0.00,,---,0.00,VWS V14.01,2013-05-31 13:41:00,
2013-05-31 09:46:00,84.0,68.2,30.03,SSE,164,2.7,6.7,59,0.00,,---,0.00,VWS V14.01,2013-05-31 13:46:00,
2013-05-31 09:51:00,84.6,67.2,30.03,SSW,194,6.3,7.6,56,0.00,,---,0.00,VWS V14.01,2013-05-31 13:51:00,
2013-05-31 10:01:00,85.1,66.1,30.03,SSW,192,4.0,6.7,53,0.00,,---,0.00,VWS V14.01,2013-05-31 14:01:00,
2013-05-31 10:06:00,85.5,68.0,30.03,South,183,4.9,8.5,56,0.00,,---,0.00,VWS V14.01,2013-05-31 14:06:00,
2013-05-31 10:16:00,86.2,68.7,30.03,SSW,194,5.8,8.5,56,0.00,,---,0.00,VWS V14.01,2013-05-31 14:16:00,
2013-05-31 10:21:00,86.7,67.6,30.03,SSW,207,0.0,8.1,53,0.00,,---,0.00,VWS V14.01,2013-05-31 14:21:00,
2013-05-31 10:26:00,86.7,67.6,30.03,SSW,200,2.2,8.9,53,0.00,,---,0.00,VWS V14.01,2013-05-31 14:26:00,
2013-05-31 10:36:00,88.2,68.9,30.03,SSW,205,1.8,8.1,53,0.00,,---,0.00,VWS V14.01,2013-05-31 14:36:00,
2013-05-31 10:46:00,88.3,69.1,30.03,SW,226,5.4,8.1,53,0.00,,---,0.00,VWS V14.01,2013-05-31 14:46:00,
2013-05-31 10:51:00,88.7,67.7,30.03,SW,226,0.0,6.7,50,0.00,,---,0.00,VWS V14.01,2013-05-31 14:51:00,
2013-05-31 11:01:00,89.8,68.7,30.00,SW,216,7.2,15.2,50,0.00,,---,0.00,VWS V14.01,2013-05-31 15:01:00,
2013-05-31 11:06:00,88.5,67.5,30.00,South,181,2.7,11.6,50,0.00,,---,0.00,VWS V14.01,2013-05-31 15:06:00,
2013-05-31 11:16:00,87.3,66.4,30.03,WNW,291,2.2,9.8,50,0.00,,---,0.00,VWS V14.01,2013-05-31 15:16:00,
2013-05-31 11:21:00,86.4,66.1,30.03,WNW,295,6.3,7.6,51,0.00,,---,0.00,VWS V14.01,2013-05-31 15:21:00,
2013-05-31 11:26:00,85.6,65.4,30.03,NW,308,0.0,7.6,51,0.00,,---,0.00,VWS V14.01,2013-05-31 15:26:00,
2013-05-31 11:31:00,85.8,65.6,30.00,NW,307,0.0,0.0,51,0.00,,---,0.00,VWS V14.01,2013-05-31 15:31:00,
2013-05-31 11:36:00,86.9,66.0,30.00,West,277,5.4,8.5,50,0.00,,---,0.00,VWS V14.01,2013-05-31 15:36:00,
2013-05-31 11:41:00,87.6,66.7,30.00,WSW,257,3.1,6.3,50,0.00,,---,0.00,VWS V14.01,2013-05-31 15:41:00,
2013-05-31 11:51:00,87.1,66.2,30.00,WSW,239,5.4,7.6,50,0.00,,---,0.00,VWS V14.01,2013-05-31 15:51:00,
2013-05-31 12:01:00,87.3,66.4,30.00,NW,311,6.3,9.8,50,0.00,,---,0.00,VWS V14.01,2013-05-31 16:01:00,
2013-05-31 12:06:00,86.9,66.0,30.00,NW,305,0.0,7.2,50,0.00,,---,0.00,VWS V14.01,2013-05-31 16:06:00,
2013-05-31 12:11:00,86.4,66.1,30.00,West,280,5.8,7.6,51,0.00,,---,0.00,VWS V14.01,2013-05-31 16:11:00,
2013-05-31 12:16:00,86.4,66.1,30.00,NW,316,5.4,5.8,51,0.00,,---,0.00,VWS V14.01,2013-05-31 16:16:00,
2013-05-31 12:26:00,86.9,66.0,30.00,NNW,336,4.5,6.7,50,0.00,,---,0.00,VWS V14.01,2013-05-31 16:26:00,
2013-05-31 12:31:00,87.4,66.5,30.00,NW,315,6.3,7.2,50,0.00,,---,0.00,VWS V14.01,2013-05-31 16:31:00,
2013-05-31 12:41:00,88.0,67.0,30.00,NW,305,4.0,5.4,50,0.00,,---,0.00,VWS V14.01,2013-05-31 16:41:00,
2013-05-31 12:46:00,88.9,67.8,30.00,NW,309,2.7,9.4,50,0.00,,---,0.00,VWS V14.01,2013-05-31 16:46:00,
2013-05-31 12:56:00,89.4,68.3,30.00,NW,325,2.7,8.9,50,0.00,,---,0.00,VWS V14.01,2013-05-31 16:56:00,
2013-05-31 13:06:00,89.1,68.0,30.00,West,264,4.0,4.9,50,0.00,,---,0.00,VWS V14.01,2013-05-31 17:06:00,
2013-05-31 13:11:00,90.3,69.2,30.00,West,270,4.0,7.6,50,0.00,,---,0.00,VWS V14.01,2013-05-31 17:11:00,
2013-05-31 13:21:00,89.4,68.3,30.00,West,261,0.0,7.2,50,0.00,,---,0.00,VWS V14.01,2013-05-31 17:21:00,
2013-05-31 13:31:00,90.3,69.2,29.97,NW,315,0.0,8.1,50,0.00,,---,0.00,VWS V14.01,2013-05-31 17:31:00,
2013-05-31 13:36:00,89.2,68.2,29.97,SW,226,6.3,12.1,50,0.00,,---,0.00,VWS V14.01,2013-05-31 17:36:00,
2013-05-31 13:46:00,90.3,69.2,29.97,WNW,287,0.0,11.6,50,0.00,,---,0.00,VWS V14.01,2013-05-31 17:46:00,
2013-05-31 13:51:00,89.8,68.7,29.97,WNW,290,4.5,19.7,50,0.00,,---,0.00,VWS V14.01,2013-05-31 17:51:00,
2013-05-31 14:01:00,90.9,69.7,29.97,SSW,195,4.5,9.8,50,0.00,,---,0.00,VWS V14.01,2013-05-31 18:01:00,
2013-05-31 14:11:00,91.8,70.5,29.97,WNW,283,0.0,10.3,50,0.00,,---,0.00,VWS V14.01,2013-05-31 18:11:00,
2013-05-31 14:16:00,91.0,69.8,29.97,SSW,212,7.6,11.2,50,0.00,,---,0.00,VWS V14.01,2013-05-31 18:16:00,
2013-05-31 14:26:00,89.1,68.0,29.97,NW,304,6.7,7.6,50,0.00,,---,0.00,VWS V14.01,2013-05-31 18:26:00,
2013-05-31 14:36:00,90.9,69.7,29.97,WNW,284,0.9,6.7,50,0.00,,---,0.00,VWS V14.01,2013-05-31 18:36:00,
2013-05-31 14:45:00,91.9,70.7,29.97,West,276,4.5,7.2,50,0.00,,---,0.00,VWS V14.01,2013-05-31 18:45:00,
2013-05-31 14:55:00,92.1,70.8,29.97,WNW,292,0.9,6.3,50,0.00,,---,0.00,VWS V14.01,2013-05-31 18:55:00,
2013-05-31 15:00:00,91.6,70.3,29.94,WNW,288,0.0,7.2,50,0.00,,---,0.00,VWS V14.01,2013-05-31 19:00:00,
2013-05-31 15:10:00,91.0,69.8,29.94,West,273,4.5,9.8,50,0.00,,---,0.00,VWS V14.01,2013-05-31 19:10:00,
2013-05-31 15:15:00,91.8,70.5,29.94,SW,233,8.1,8.9,50,0.00,,---,0.00,VWS V14.01,2013-05-31 19:15:00,
2013-05-31 15:25:00,91.6,70.3,29.94,SW,226,14.3,23.7,50,0.00,,---,0.00,VWS V14.01,2013-05-31 19:25:00,
2013-05-31 15:30:00,91.0,69.8,29.94,SW,223,8.5,17.4,50,0.00,,---,0.00,VWS V14.01,2013-05-31 19:30:00,
2013-05-31 15:40:00,90.3,69.2,29.94,WSW,243,4.5,7.6,50,0.00,,---,0.00,VWS V14.01,2013-05-31 19:40:00,
2013-05-31 15:45:00,89.8,68.7,29.94,SW,235,4.9,7.2,50,0.00,,---,0.00,VWS V14.01,2013-05-31 19:45:00,
2013-05-31 15:55:00,90.3,69.2,29.94,West,261,4.0,9.8,50,0.00,,---,0.00,VWS V14.01,2013-05-31 19:55:00,
2013-05-31 16:00:00,91.0,69.8,29.94,West,269,4.9,11.6,50,0.00,,---,0.00,VWS V14.01,2013-05-31 20:00:00,
2013-05-31 16:05:00,91.4,70.2,29.94,SW,228,4.0,5.4,50,0.00,,---,0.00,VWS V14.01,2013-05-31 20:05:00,
2013-05-31 16:10:00,91.0,69.8,29.94,West,273,4.5,9.8,50,0.00,,---,0.00,VWS V14.01,2013-05-31 20:10:00,
2013-05-31 16:15:00,90.9,69.7,29.94,WSW,242,3.1,10.3,50,0.00,,---,0.00,VWS V14.01,2013-05-31 20:15:00,
2013-05-31 16:20:00,92.5,70.6,29.94,SW,233,8.1,15.7,49,0.00,,---,0.00,VWS V14.01,2013-05-31 20:20:00,
2013-05-31 16:25:00,91.4,70.2,29.94,SW,216,5.8,8.1,50,0.00,,---,0.00,VWS V14.01,2013-05-31 20:25:00,
2013-05-31 16:30:00,90.3,69.2,29.91,West,267,4.0,8.1,50,0.00,,---,0.00,VWS V14.01,2013-05-31 20:30:00,
2013-05-31 16:35:00,91.0,69.8,29.94,WSW,242,0.9,17.0,50,0.00,,---,0.00,VWS V14.01,2013-05-31 20:35:00,
2013-05-31 16:40:00,90.9,69.7,29.91,SW,225,7.6,13.4,50,0.00,,---,0.00,VWS V14.01,2013-05-31 20:40:00,
2013-05-31 16:45:00,90.1,69.0,29.91,WSW,249,7.6,13.4,50,0.00,,---,0.00,VWS V14.01,2013-05-31 20:45:00,
2013-05-31 16:50:00,90.5,69.3,29.94,SW,228,9.8,9.8,50,0.00,,---,0.00,VWS V14.01,2013-05-31 20:50:00,
2013-05-31 16:55:00,90.3,69.2,29.91,SW,230,9.8,11.2,50,0.00,,---,0.00,VWS V14.01,2013-05-31 20:55:00,
2013-05-31 17:00:00,89.8,68.7,29.91,SW,230,4.9,13.0,50,0.00,,---,0.00,VWS V14.01,2013-05-31 21:00:00,
2013-05-31 17:05:00,90.0,68.8,29.91,WSW,238,1.3,9.8,50,0.00,,---,0.00,VWS V14.01,2013-05-31 21:05:00,
2013-05-31 17:10:00,89.8,68.7,29.91,West,266,0.0,10.7,50,0.00,,---,0.00,VWS V14.01,2013-05-31 21:10:00,
2013-05-31 17:15:00,89.2,68.2,29.91,SW,233,5.4,12.5,50,0.00,,---,0.00,VWS V14.01,2013-05-31 21:15:00,
2013-05-31 17:20:00,91.6,70.3,29.94,SW,225,2.2,9.8,50,0.00,,---,0.00,VWS V14.01,2013-05-31 21:20:00,
2013-05-31 17:25:00,90.3,69.2,29.91,SW,222,10.3,13.0,50,0.00,,---,0.00,VWS V14.01,2013-05-31 21:25:00,
2013-05-31 17:30:00,89.2,68.2,29.91,SSW,212,8.1,13.4,50,0.00,,---,0.00,VWS V14.01,2013-05-31 21:30:00,
2013-05-31 17:35:00,88.7,67.7,29.91,SW,215,7.2,10.3,50,0.00,,---,0.00,VWS V14.01,2013-05-31 21:35:00,
2013-05-31 17:40:00,90.9,69.7,29.91,SW,225,7.6,13.4,50,0.00,,---,0.00,VWS V14.01,2013-05-31 21:40:00,
2013-05-31 17:45:00,89.1,68.0,29.88,SSW,211,9.8,9.8,50,0.00,,---,0.00,VWS V14.01,2013-05-31 21:45:00,
2013-05-31 17:50:00,90.1,69.0,29.91,SW,235,8.1,13.0,50,0.00,,---,0.00,VWS V14.01,2013-05-31 21:50:00,
2013-05-31 17:55:00,88.7,67.7,29.88,SSW,198,6.7,10.3,50,0.00,,---,0.00,VWS V14.01,2013-05-31 21:55:00,
2013-05-31 18:00:00,88.0,67.0,29.88,SW,222,8.1,11.6,50,0.00,,---,0.00,VWS V14.01,2013-05-31 22:00:00,
2013-05-31 18:05:00,88.0,67.0,29.88,SW,223,5.8,10.3,50,0.00,,---,0.00,VWS V14.01,2013-05-31 22:05:00,
2013-05-31 18:10:00,89.8,68.7,29.91,West,266,0.0,10.7,50,0.00,,---,0.00,VWS V14.01,2013-05-31 22:10:00,
2013-05-31 18:15:00,88.0,67.0,29.88,SW,232,4.9,7.2,50,0.00,,---,0.00,VWS V14.01,2013-05-31 22:15:00,
2013-05-31 18:20:00,88.0,67.0,29.88,SW,218,5.4,8.5,50,0.00,,---,0.00,VWS V14.01,2013-05-31 22:20:00,
2013-05-31 18:25:00,87.4,66.5,29.88,SW,230,4.5,11.2,50,0.00,,---,0.00,VWS V14.01,2013-05-31 22:25:00,
2013-05-31 18:30:00,89.2,68.2,29.91,SSW,212,8.1,13.4,50,0.00,,---,0.00,VWS V14.01,2013-05-31 22:30:00,
2013-05-31 18:35:00,87.1,66.2,29.88,SW,222,7.2,11.2,50,0.00,,---,0.00,VWS V14.01,2013-05-31 22:35:00,
2013-05-31 18:40:00,86.5,66.3,29.88,SW,221,5.4,10.7,51,0.00,,---,0.00,VWS V14.01,2013-05-31 22:40:00,
2013-05-31 18:45:00,89.1,68.0,29.88,SSW,211,9.8,9.8,50,0.00,,---,0.00,VWS V14.01,2013-05-31 22:45:00,
2013-05-31 18:50:00,85.8,65.6,29.88,SW,225,4.9,10.7,51,0.00,,---,0.00,VWS V14.01,2013-05-31 22:50:00,
2013-05-31 18:55:00,85.1,65.0,29.88,SW,225,4.9,5.4,51,0.00,,---,0.00,VWS V14.01,2013-05-31 22:55:00,
2013-05-31 19:00:00,84.9,64.8,29.88,SW,218,4.9,8.1,51,0.00,,---,0.00,VWS V14.01,2013-05-31 23:00:00,
2013-05-31 19:05:00,88.0,67.0,29.88,SW,223,5.8,10.3,50,0.00,,---,0.00,VWS V14.01,2013-05-31 23:05:00,
2013-05-31 19:10:00,84.0,64.0,29.88,SW,222,4.0,6.3,51,0.00,,---,0.00,VWS V14.01,2013-05-31 23:10:00,
2013-05-31 19:15:00,84.2,64.1,29.88,SW,222,0.0,4.9,51,0.00,,---,0.00,VWS V14.01,2013-05-31 23:15:00,
2013-05-31 19:20:00,88.0,67.0,29.88,SW,218,5.4,8.5,50,0.00,,---,0.00,VWS V14.01,2013-05-31 23:20:00,
2013-05-31 19:25:00,82.6,63.2,29.88,SW,222,2.2,4.9,52,0.00,,---,0.00,VWS V14.01,2013-05-31 23:25:00,
2013-05-31 19:30:00,80.4,61.2,29.88,SW,222,0.0,3.6,52,0.00,,---,0.00,VWS V14.01,2013-05-31 23:30:00,
2013-05-31 19:35:00,79.3,60.2,29.88,SW,222,4.0,4.5,52,0.00,,---,0.00,VWS V14.01,2013-05-31 23:35:00,
2013-05-31 19:40:00,86.5,66.3,29.88,SW,221,5.4,10.7,51,0.00,,---,0.00,VWS V14.01,2013-05-31 23:40:00,
2013-05-31 19:45:00,77.5,61.6,29.88,SW,222,3.1,4.9,58,0.00,,---,0.00,VWS V14.01,2013-05-31 23:45:00,
2013-05-31 19:50:00,76.3,61.4,29.88,SW,222,4.0,4.5,60,0.00,,---,0.00,VWS V14.01,2013-05-31 23:50:00,
2013-05-31 19:55:00,85.1,65.0,29.88,SW,225,4.9,5.4,51,0.00,,---,0.00,VWS V14.01,2013-05-31 23:55:00,
2013-05-31 20:00:00,75.9,61.5,29.88,SW,222,3.1,5.4,61,0.00,,---,0.00,VWS V14.01,2013-06-01 00:00:00,
2013-05-31 20:05:00,75.2,60.8,29.88,SW,222,4.5,4.9,61,0.00,,---,0.00,VWS V14.01,2013-06-01 00:05:00,
2013-05-31 20:10:00,84.0,64.0,29.88,SW,222,4.0,6.3,51,0.00,,---,0.00,VWS V14.01,2013-06-01 00:10:00,
2013-05-31 20:15:00,75.2,60.8,29.88,SW,222,3.1,5.4,61,0.00,,---,0.00,VWS V14.01,2013-06-01 00:15:00,
2013-05-31 20:20:00,75.0,60.7,29.88,SW,222,3.6,4.9,61,0.00,,---,0.00,VWS V14.01,2013-06-01 00:20:00,
2013-05-31 20:25:00,74.7,60.3,29.88,SW,222,4.5,4.9,61,0.00,,---,0.00,VWS V14.01,2013-06-01 00:25:00,
2013-05-31 20:30:00,80.4,61.2,29.88,SW,222,0.0,3.6,52,0.00,,---,0.00,VWS V14.01,2013-06-01 00:30:00,
2013-05-31 20:35:00,73.2,59.9,29.88,SW,222,3.6,5.8,63,0.00,,---,0.00,VWS V14.01,2013-06-01 00:35:00,
2013-05-31 20:40:00,73.0,59.3,29.88,SW,222,4.5,4.9,62,0.00,,---,0.00,VWS V14.01,2013-06-01 00:40:00,
2013-05-31 20:45:00,73.0,59.7,29.88,SW,222,3.6,4.5,63,0.00,,---,0.00,VWS V14.01,2013-06-01 00:45:00,
2013-05-31 20:50:00,76.3,61.4,29.88,SW,222,4.0,4.5,60,0.00,,---,0.00,VWS V14.01,2013-06-01 00:50:00,
2013-05-31 20:55:00,73.0,59.3,29.88,SW,222,3.6,4.0,62,0.00,,---,0.00,VWS V14.01,2013-06-01 00:55:00,
2013-05-31 21:00:00,73.0,59.3,29.88,SW,221,3.1,4.0,62,0.00,,---,0.00,VWS V14.01,2013-06-01 01:00:00,
2013-05-31 21:05:00,72.7,58.9,29.88,SW,222,3.6,4.0,62,0.00,,---,0.00,VWS V14.01,2013-06-01 01:05:00,
2013-05-31 21:10:00,72.5,58.8,29.88,SW,222,4.0,4.5,62,0.00,,---,0.00,VWS V14.01,2013-06-01 01:10:00,
2013-05-31 21:15:00,72.7,58.5,29.91,SW,221,5.4,5.4,61,0.00,,---,0.00,VWS V14.01,2013-06-01 01:15:00,
2013-05-31 21:20:00,72.7,58.5,29.91,SW,222,5.4,6.7,61,0.00,,---,0.00,VWS V14.01,2013-06-01 01:20:00,
2013-05-31 21:25:00,74.7,60.3,29.88,SW,222,4.5,4.9,61,0.00,,---,0.00,VWS V14.01,2013-06-01 01:25:00,
2013-05-31 21:30:00,73.0,58.8,29.91,SW,215,6.3,7.6,61,0.00,,---,0.00,VWS V14.01,2013-06-01 01:30:00,
2013-05-31 21:35:00,73.2,58.0,29.91,SW,218,7.6,8.9,59,0.00,,---,0.00,VWS V14.01,2013-06-01 01:35:00,
2013-05-31 21:40:00,73.0,59.3,29.88,SW,222,4.5,4.9,62,0.00,,---,0.00,VWS V14.01,2013-06-01 01:40:00,
2013-05-31 21:45:00,72.9,58.6,29.91,SW,214,8.5,9.4,61,0.00,,---,0.00,VWS V14.01,2013-06-01 01:45:00,
2013-05-31 21:50:00,72.9,58.6,29.91,SSW,208,8.9,9.4,61,0.00,,---,0.00,VWS V14.01,2013-06-01 01:50:00,
2013-05-31 21:55:00,73.0,59.3,29.88,SW,222,3.6,4.0,62,0.00,,---,0.00,VWS V14.01,2013-06-01 01:55:00,
2013-05-31 22:00:00,72.7,58.5,29.91,SW,219,6.7,8.9,61,0.00,,---,0.00,VWS V14.01,2013-06-01 02:00:00,
2013-05-31 22:05:00,72.7,58.5,29.91,SSW,212,6.3,10.3,61,0.00,,---,0.00,VWS V14.01,2013-06-01 02:05:00,
2013-05-31 22:10:00,72.5,58.3,29.91,SW,218,9.4,10.7,61,0.00,,---,0.00,VWS V14.01,2013-06-01 02:10:00,
2013-05-31 22:15:00,72.7,58.5,29.91,SW,221,5.4,5.4,61,0.00,,---,0.00,VWS V14.01,2013-06-01 02:15:00,
2013-05-31 22:20:00,73.0,58.8,29.91,SW,219,7.2,10.3,61,0.00,,---,0.00,VWS V14.01,2013-06-01 02:20:00,
2013-05-31 22:25:00,73.0,58.8,29.91,SSW,212,6.7,10.3,61,0.00,,---,0.00,VWS V14.01,2013-06-01 02:25:00,
2013-05-31 22:30:00,73.0,58.8,29.91,SW,215,6.3,7.6,61,0.00,,---,0.00,VWS V14.01,2013-06-01 02:30:00,
2013-05-31 22:35:00,72.5,58.8,29.91,SW,216,6.7,8.1,62,0.00,,---,0.00,VWS V14.01,2013-06-01 02:35:00,
2013-05-31 22:40:00,72.3,58.6,29.91,SW,215,7.2,10.7,62,0.00,,---,0.00,VWS V14.01,2013-06-01 02:40:00,
2013-05-31 22:45:00,72.9,58.6,29.91,SW,214,8.5,9.4,61,0.00,,---,0.00,VWS V14.01,2013-06-01 02:45:00,
2013-05-31 22:50:00,71.8,58.5,29.91,SW,216,7.2,9.4,63,0.00,,---,0.00,VWS V14.01,2013-06-01 02:50:00,
2013-05-31 22:55:00,71.6,58.3,29.91,SW,219,7.6,11.2,63,0.00,,---,0.00,VWS V14.01,2013-06-01 02:55:00,
2013-05-31 23:00:00,71.6,58.3,29.91,SW,218,12.5,12.5,63,0.00,,---,0.00,VWS V14.01,2013-06-01 03:00:00,
2013-05-31 23:05:00,72.7,58.5,29.91,SSW,212,6.3,10.3,61,0.00,,---,0.00,VWS V14.01,2013-06-01 03:05:00,
2013-05-31 23:10:00,71.6,58.3,29.91,SW,214,8.9,12.1,63,0.00,,---,0.00,VWS V14.01,2013-06-01 03:10:00,
2013-05-31 23:15:00,71.4,58.2,29.91,SW,214,7.6,10.7,63,0.00,,---,0.00,VWS V14.01,2013-06-01 03:15:00,
2013-05-31 23:20:00,73.0,58.8,29.91,SW,219,7.2,10.3,61,0.00,,---,0.00,VWS V14.01,2013-06-01 03:20:00,
2013-05-31 23:25:00,70.7,57.9,29.91,SW,216,6.3,8.5,64,0.00,,---,0.00,VWS V14.01,2013-06-01 03:25:00,
2013-05-31 23:30:00,70.5,58.2,29.91,SW,218,7.2,8.1,65,0.00,,---,0.00,VWS V14.01,2013-06-01 03:30:00,
2013-05-31 23:35:00,70.2,58.3,29.91,SW,214,5.8,8.9,66,0.00,,---,0.00,VWS V14.01,2013-06-01 03:35:00,
2013-05-31 23:40:00,69.8,58.4,29.91,SW,215,6.3,8.1,67,0.00,,---,0.00,VWS V14.01,2013-06-01 03:40:00,
2013-05-31 23:45:00,69.6,58.2,29.91,SW,215,6.3,8.5,67,0.00,,---,0.00,VWS V14.01,2013-06-01 03:45:00,
2013-05-31 23:50:00,71.8,58.5,29.91,SW,216,7.2,9.4,63,0.00,,---,0.00,VWS V14.01,2013-06-01 03:50:00,
2013-05-31 23:55:00,69.6,58.2,29.91,SW,218,4.5,9.4,67,0.00,,---,0.00,VWS V14.01,2013-06-01 03:55:00,